Weather History for Le Mars, IA

Change the Weather History Date:

Monday, November 28, 2011

  Actual Average Record
Temperature  
Mean Temperature 28 °F -  
Max Temperature 48 °F 32 °F 54 °F (1980)
Min Temperature 8 °F 15 °F -4 °F (1976)
Degree Days  
Heating Degree Days 37    
Moisture  
Dew Point 14 °F    
Average Humidity 61    
Maximum Humidity 93    
Minimum Humidity 25    
Precipitation  
Precipitation 0.00 in - - ()
Sea Level Pressure  
Sea Level Pressure 30.07 in    
Wind  
Wind Speed 4 mph (SSW)    
Max Wind Speed 17 mph    
Max Gust Speed 20 mph    
Visibility 10 miles    
Events      
Averages and records for this station are not official NWS values.
T = Trace of Precipitation, MM = Missing Value Source: NWS Daily Summary

Daily Weather History Graph

Daily Weather History Graph

Search for Another Location

Airport:

Trip Planner

Search our weather history database for the weather conditions in past years. The results will help you decide how hot, cold, wet, or windy it might be!

Date:

Astronomy

Nov. 28, 2011 Rise Set
Actual Time 7:32 AM CST 4:53 PM CST
Civil Twilight 7:00 AM CST 5:24 PM CST
Nautical Twilight 6:25 AM CST 5:59 PM CST
Astronomical Twilight 5:51 AM CST 6:33 PM CST
Moon 10:41 AM CST (11/28) 8:42 PM CST (11/28)
Length of Visible Light 10h 23m
Length of Day
9h 21m
Waxing Crescent, 16% of the Moon is Illuminated
Nov 28
Waxing Crescent
Dec 2
First Quarter
Dec 10
Full
Dec 17
Last Quarter
Dec 24
New

Hourly Weather History & Observations

Time (CST) Temp. Windchill Dew Point Humidity Pressure Visibility Wind Dir Wind Speed Gust Speed Precip Events Conditions
12:15 AM 12.2 °F - 8.6 °F 85% 30.13 in 10.0 mi Calm Calm - N/A   Clear
12:35 AM 10.4 °F - 6.8 °F 85% 30.14 in 10.0 mi Calm Calm - N/A   Clear
12:55 AM 8.6 °F - 6.8 °F 92% 30.14 in 10.0 mi Calm Calm - N/A   Clear
1:15 AM 10.4 °F - 6.8 °F 85% 30.13 in 10.0 mi Calm Calm - N/A   Clear
1:35 AM 10.4 °F - 6.8 °F 85% 30.13 in 10.0 mi Calm Calm - N/A   Clear
1:55 AM 10.4 °F - 8.6 °F 92% 30.13 in 10.0 mi Calm Calm - N/A   Clear
2:15 AM 10.4 °F - 8.6 °F 92% 30.13 in 10.0 mi Calm Calm - N/A   Clear
2:35 AM 10.4 °F - 8.6 °F 92% 30.12 in 10.0 mi Calm Calm - N/A   Clear
2:55 AM 12.2 °F - 10.4 °F 92% 30.12 in 10.0 mi Calm Calm - N/A   Clear
3:15 AM 14.0 °F - 10.4 °F 86% 30.11 in 10.0 mi Calm Calm - N/A   Clear
3:35 AM 12.2 °F - 10.4 °F 92% 30.10 in 10.0 mi Calm Calm - N/A   Clear
3:55 AM 12.2 °F - 10.4 °F 92% 30.10 in 10.0 mi Calm Calm - N/A   Clear
4:15 AM 15.8 °F - 12.2 °F 86% 30.09 in 10.0 mi Calm Calm - N/A   Clear
4:35 AM 14.0 °F 8.2 °F 10.4 °F 86% 30.09 in 10.0 mi WSW 3.5 mph - N/A   Clear
4:55 AM 14.0 °F - 12.2 °F 93% 30.09 in 10.0 mi Calm Calm - N/A   Clear
5:15 AM 15.8 °F 8.6 °F 12.2 °F 86% 30.09 in 10.0 mi SSW 4.6 mph - N/A   Clear
5:35 AM 17.6 °F 10.7 °F 14.0 °F 86% 30.07 in 10.0 mi South 4.6 mph - N/A   Clear
5:55 AM 19.4 °F 10.4 °F 15.8 °F 86% 30.07 in 10.0 mi South 6.9 mph - N/A   Clear
6:15 AM 19.4 °F 11.5 °F 15.8 °F 86% 30.06 in 10.0 mi South 5.8 mph - N/A   Clear
6:35 AM 19.4 °F 11.5 °F 15.8 °F 86% 30.07 in 10.0 mi South 5.8 mph - N/A   Clear
6:55 AM 19.4 °F 11.5 °F 15.8 °F 86% 30.07 in 10.0 mi South 5.8 mph - N/A   Clear
7:15 AM 19.4 °F 11.5 °F 15.8 °F 86% 30.07 in 10.0 mi South 5.8 mph - N/A   Clear
7:55 AM 19.4 °F 11.5 °F 15.8 °F 86% 30.05 in 10.0 mi South 5.8 mph - N/A   Clear
8:15 AM 23.0 °F 13.9 °F 17.6 °F 80% 30.05 in 10.0 mi South 8.1 mph - N/A   Clear
8:35 AM 26.6 °F 16.8 °F 17.6 °F 69% 30.05 in 10.0 mi South 10.4 mph - N/A   Clear
8:55 AM 26.6 °F 16.8 °F 17.6 °F 69% 30.04 in 10.0 mi South 10.4 mph - N/A   Clear
9:15 AM 28.4 °F 19.7 °F 19.4 °F 69% 30.04 in 10.0 mi South 9.2 mph - N/A   Clear
9:35 AM 30.2 °F 21.3 °F 19.4 °F 64% 30.05 in 10.0 mi SSW 10.4 mph - N/A   Clear
9:55 AM 32.0 °F 22.5 °F 19.4 °F 60% 30.04 in 10.0 mi SSW 12.7 mph - N/A   Clear
10:15 AM 33.8 °F 25.8 °F 19.4 °F 56% 30.05 in 10.0 mi SSW 10.4 mph - N/A   Clear
10:35 AM 35.6 °F 27.1 °F 17.6 °F 48% 30.05 in 10.0 mi South 12.7 mph - N/A   Clear
10:55 AM 37.4 °F 28.9 °F 15.8 °F 41% 30.06 in 10.0 mi South 13.8 mph - N/A   Clear
11:15 AM 37.4 °F 27.8 °F 15.8 °F 41% 30.04 in 10.0 mi South 17.3 mph - N/A   Clear
11:35 AM 39.2 °F 30.5 °F 15.8 °F 39% 30.04 in 10.0 mi SSW 16.1 mph 19.6 mph N/A   Clear
11:55 AM 39.2 °F 31.2 °F 15.8 °F 39% 30.04 in 10.0 mi SSW 13.8 mph - N/A   Clear
12:15 PM 41.0 °F 34.7 °F 15.8 °F 36% 30.04 in 10.0 mi South 10.4 mph - N/A   Clear
12:35 PM 42.8 °F 37.0 °F 14.0 °F 31% 30.04 in 10.0 mi SSW 10.4 mph - N/A   Clear
1:15 PM 44.6 °F 39.7 °F 15.8 °F 31% 30.04 in 10.0 mi SW 9.2 mph - N/A   Clear
1:35 PM 44.6 °F 40.2 °F 15.8 °F 31% 30.05 in 10.0 mi WSW 8.1 mph - N/A   Clear
1:55 PM 46.4 °F 42.4 °F 15.8 °F 29% 30.04 in 10.0 mi SSW 8.1 mph - N/A   Clear
2:15 PM 46.4 °F 42.9 °F 15.8 °F 29% 30.03 in 10.0 mi SSW 6.9 mph - N/A   Clear
2:35 PM 46.4 °F 43.5 °F 15.8 °F 29% 30.03 in 10.0 mi SW 5.8 mph - N/A   Clear
2:55 PM 48.2 °F - 15.8 °F 27% 30.04 in 10.0 mi SW 3.5 mph - N/A   Clear
3:15 PM 48.2 °F - 14.0 °F 25% 30.04 in 10.0 mi SW 6.9 mph - N/A   Clear
3:35 PM 48.2 °F - 14.0 °F 25% 30.05 in 10.0 mi West 6.9 mph - N/A   Clear
3:55 PM 48.2 °F - 14.0 °F 25% 30.05 in 10.0 mi WSW 3.5 mph - N/A   Clear
4:15 PM 48.2 °F - 14.0 °F 25% 30.06 in 10.0 mi West 3.5 mph - N/A   Clear
4:35 PM 44.6 °F 43.1 °F 14.0 °F 29% 30.07 in 10.0 mi NW 3.5 mph - N/A   Clear
4:55 PM 44.6 °F 43.1 °F 14.0 °F 29% 30.09 in 10.0 mi North 3.5 mph - N/A   Clear
5:15 PM 39.2 °F 37.0 °F 12.2 °F 33% 30.09 in 7.0 mi North 3.5 mph - N/A   Clear
5:35 PM 39.2 °F 35.9 °F 14.0 °F 36% 30.10 in 10.0 mi North 4.6 mph - N/A   Clear
5:55 PM 39.2 °F - 15.8 °F 39% 30.11 in 10.0 mi Calm Calm - N/A   Clear
6:15 PM 39.2 °F - 17.6 °F 42% 30.11 in 10.0 mi Calm Calm - N/A   Clear
6:35 PM 35.6 °F - 17.6 °F 48% 30.11 in 10.0 mi Calm Calm - N/A   Clear
6:55 PM 37.4 °F - 17.6 °F 45% 30.12 in 10.0 mi Calm Calm - N/A   Clear
7:15 PM 39.2 °F 34.2 °F 17.6 °F 42% 30.13 in 10.0 mi NNW 6.9 mph - N/A   Clear
7:35 PM 41.0 °F 35.8 °F 17.6 °F 39% 30.14 in 10.0 mi NNW 8.1 mph - N/A   Clear
8:15 PM 44.6 °F 38.1 °F 24.8 °F 46% 30.16 in 10.0 mi North 13.8 mph - N/A   Clear
8:35 PM 42.8 °F 36.2 °F 24.8 °F 49% 30.17 in 10.0 mi North 12.7 mph 17.3 mph N/A   Clear
8:55 PM 42.8 °F 36.6 °F 26.6 °F 53% 30.18 in 10.0 mi North 11.5 mph - N/A   Clear
9:15 PM 42.8 °F 37.0 °F 28.4 °F 57% 30.18 in 10.0 mi North 10.4 mph - N/A   Clear
9:35 PM 42.8 °F 36.6 °F 30.2 °F 61% 30.20 in 10.0 mi North 11.5 mph - N/A   Clear
9:55 PM 41.0 °F 34.7 °F 28.4 °F 61% 30.21 in 10.0 mi North 10.4 mph - N/A   Clear
10:35 PM 39.2 °F 31.6 °F 28.4 °F 65% 30.21 in 10.0 mi NNE 12.7 mph - N/A   Clear
10:55 PM 37.4 °F 30.3 °F 28.4 °F 70% 30.22 in 10.0 mi North 10.4 mph - N/A   Clear
11:15 PM 37.4 °F 29.8 °F 28.4 °F 70% 30.23 in 10.0 mi North 11.5 mph - N/A   Clear
11:35 PM 33.8 °F 27.0 °F 26.6 °F 75% 30.24 in 10.0 mi North 8.1 mph - N/A   Clear
11:55 PM 32.0 °F 24.8 °F 26.6 °F 80% 30.24 in 10.0 mi North 8.1 mph - N/A   Clear